Time;durP1;ratioP1;P1;durP2;ratioP2;P2;SDS_P1;SDS_P2;PMS_P1;PMS_P2;Temp;Humidity;BMP_temperature;BMP_pressure;BME280_temperature;BME280_humidity;BME280_pressure;Samples;Min_cycle;Max_cycle;Signal;HPM_P1;HPM_P2
2023/12/10 00:00:22;;;;;;;32.25;4.68;;;;;;;;;;5093264;28;20044;-66
2023/12/10 00:02:48;;;;;;;44.67;5.10;;;;;;;;;;5079066;28;20044;-66
2023/12/10 00:05:14;;;;;;;33.47;5.65;;;;;;;;;;5071679;28;20057;-66
2023/12/10 00:07:40;;;;;;;34.72;5.95;;;;;;;;;;5073532;28;20041;-66
2023/12/10 00:10:07;;;;;;;34.08;5.35;;;;;;;;;;5073807;28;20360;-66
2023/12/10 00:12:33;;;;;;;30.27;5.43;;;;;;;;;;5073577;28;20600;-66
2023/12/10 00:14:59;;;;;;;23.48;4.63;;;;;;;;;;5073826;28;20036;-66
2023/12/10 00:17:25;;;;;;;31.25;4.88;;;;;;;;;;5077652;28;20040;-67
2023/12/10 00:19:52;;;;;;;34.25;4.70;;;;;;;;;;5082843;28;20045;-67
2023/12/10 00:22:18;;;;;;;32.33;6.03;;;;;;;;;;5087838;28;20082;-67
2023/12/10 00:24:44;;;;;;;24.23;4.60;;;;;;;;;;5095285;28;20040;-67
2023/12/10 00:27:10;;;;;;;34.78;6.05;;;;;;;;;;5076751;28;20067;-67
2023/12/10 00:29:36;;;;;;;32.80;5.85;;;;;;;;;;5074732;28;20471;-67
2023/12/10 00:32:02;;;;;;;38.63;5.15;;;;;;;;;;5074865;28;20670;-67
2023/12/10 00:34:29;;;;;;;30.55;4.15;;;;;;;;;;5082182;28;20039;-67
2023/12/10 00:36:55;;;;;;;32.40;5.03;;;;;;;;;;5095133;28;20474;-67
2023/12/10 00:39:21;;;;;;;26.33;4.60;;;;;;;;;;5094965;28;20126;-67
2023/12/10 00:41:47;;;;;;;30.55;4.90;;;;;;;;;;5093666;28;20059;-67
2023/12/10 00:44:13;;;;;;;34.30;6.95;;;;;;;;;;5095017;28;20069;-67
2023/12/10 00:46:39;;;;;;;31.95;4.95;;;;;;;;;;5095036;28;20079;-67
2023/12/10 00:49:05;;;;;;;32.22;5.35;;;;;;;;;;5094804;28;20040;-67
2023/12/10 00:51:31;;;;;;;25.20;4.65;;;;;;;;;;5085658;28;20040;-67
2023/12/10 00:53:58;;;;;;;28.77;4.47;;;;;;;;;;5073219;28;20044;-67
2023/12/10 00:56:24;;;;;;;29.55;4.68;;;;;;;;;;5074938;28;20076;-67
2023/12/10 00:58:50;;;;;;;29.85;4.75;;;;;;;;;;5073810;28;20040;-67
2023/12/10 01:01:16;;;;;;;26.90;4.00;;;;;;;;;;5073298;28;20044;-67
2023/12/10 01:03:42;;;;;;;21.92;3.60;;;;;;;;;;5074544;28;20033;-67
2023/12/10 01:06:10;;;;;;;20.05;3.30;;;;;;;;;;5072739;28;20581;-67
2023/12/10 01:08:36;;;;;;;23.73;4.28;;;;;;;;;;5074181;28;20064;-67
2023/12/10 01:11:02;;;;;;;34.42;4.65;;;;;;;;;;5073620;28;20067;-67
2023/12/10 01:13:28;;;;;;;33.22;8.27;;;;;;;;;;5072375;28;20578;-67
2023/12/10 01:15:55;;;;;;;36.72;6.43;;;;;;;;;;5072797;28;20052;-67
2023/12/10 01:18:21;;;;;;;37.22;9.80;;;;;;;;;;5078941;28;20047;-67
2023/12/10 01:20:47;;;;;;;27.88;5.47;;;;;;;;;;5093275;28;20501;-67
2023/12/10 01:23:16;;;;;;;30.33;7.40;;;;;;;;;;5094056;28;20050;-66
2023/12/10 01:25:43;;;;;;;30.65;5.40;;;;;;;;;;5086284;28;20043;-66
2023/12/10 01:28:12;;;;;;;22.75;4.00;;;;;;;;;;5074432;28;20051;-66
2023/12/10 01:30:38;;;;;;;40.22;5.55;;;;;;;;;;5074951;28;20067;-66
2023/12/10 01:33:04;;;;;;;26.75;3.13;;;;;;;;;;5074771;28;20068;-66
2023/12/10 01:35:31;;;;;;;28.10;4.25;;;;;;;;;;5073512;28;20040;-66
2023/12/10 01:37:57;;;;;;;30.77;4.22;;;;;;;;;;5073041;28;20080;-66
2023/12/10 01:40:24;;;;;;;21.08;3.53;;;;;;;;;;5072751;28;20047;-66
2023/12/10 01:42:50;;;;;;;29.17;4.25;;;;;;;;;;5072723;28;20380;-66
2023/12/10 01:45:19;;;;;;;27.65;4.35;;;;;;;;;;5072884;28;20096;-67
2023/12/10 01:47:46;;;;;;;28.17;4.22;;;;;;;;;;5072815;28;20090;-67
2023/12/10 01:50:13;;;;;;;26.88;4.05;;;;;;;;;;5072691;28;20536;-67
2023/12/10 01:52:47;;;;;;;27.77;4.50;;;;;;;;;;5072553;28;20040;-67
2023/12/10 01:55:14;;;;;;;36.95;4.97;;;;;;;;;;5072995;28;20125;-67
2023/12/10 01:57:41;;;;;;;25.65;3.78;;;;;;;;;;5071647;28;20447;-67
2023/12/10 02:00:07;;;;;;;43.30;5.43;;;;;;;;;;5069689;28;20090;-66
2023/12/10 02:02:37;;;;;;;38.65;4.93;;;;;;;;;;5071461;28;20040;-66
2023/12/10 02:05:08;;;;;;;36.83;5.57;;;;;;;;;;5070647;28;20475;-66
2023/12/10 02:07:35;;;;;;;34.35;6.93;;;;;;;;;;5070830;28;20059;-66
2023/12/10 02:10:03;;;;;;;28.58;4.63;;;;;;;;;;5070962;28;20433;-66
2023/12/10 02:12:30;;;;;;;23.95;4.38;;;;;;;;;;5070715;28;20479;-66
2023/12/10 02:14:56;;;;;;;33.65;5.00;;;;;;;;;;5069207;28;20079;-66
2023/12/10 02:17:22;;;;;;;32.75;4.85;;;;;;;;;;5070815;28;20487;-66
2023/12/10 02:19:48;;;;;;;28.30;5.00;;;;;;;;;;5086699;28;20079;-66
2023/12/10 02:22:16;;;;;;;33.55;5.57;;;;;;;;;;5090894;28;20051;-66
2023/12/10 02:24:45;;;;;;;31.00;4.97;;;;;;;;;;5090779;28;20040;-66
2023/12/10 02:27:11;;;;;;;30.55;6.00;;;;;;;;;;5069165;28;20568;-66
2023/12/10 02:29:37;;;;;;;37.92;5.53;;;;;;;;;;5070604;28;20037;-66
2023/12/10 02:32:03;;;;;;;28.48;4.40;;;;;;;;;;5070590;28;20439;-66
2023/12/10 02:34:29;;;;;;;31.23;4.60;;;;;;;;;;5070578;28;20048;-67
2023/12/10 02:36:55;;;;;;;32.55;5.60;;;;;;;;;;5069266;28;20044;-67
2023/12/10 02:39:21;;;;;;;31.20;4.20;;;;;;;;;;5070812;28;20044;-67
2023/12/10 02:41:47;;;;;;;36.17;4.10;;;;;;;;;;5069736;28;20048;-67
2023/12/10 02:44:13;;;;;;;32.03;4.53;;;;;;;;;;5071077;28;20044;-67
2023/12/10 02:46:44;;;;;;;37.67;5.38;;;;;;;;;;5069838;28;20051;-67
2023/12/10 02:49:11;;;;;;;42.33;5.47;;;;;;;;;;5071425;28;20040;-67
2023/12/10 02:51:37;;;;;;;29.58;5.00;;;;;;;;;;5071665;28;20075;-67
2023/12/10 02:54:03;;;;;;;45.55;5.18;;;;;;;;;;5071356;28;20036;-67
2023/12/10 02:56:29;;;;;;;28.77;4.90;;;;;;;;;;5070824;28;20040;-67
2023/12/10 02:58:55;;;;;;;36.17;5.38;;;;;;;;;;5071469;28;20043;-67
2023/12/10 03:01:21;;;;;;;33.40;5.57;;;;;;;;;;5071712;28;20534;-67
2023/12/10 03:03:47;;;;;;;32.08;4.50;;;;;;;;;;5070045;28;20041;-67
2023/12/10 03:06:13;;;;;;;29.33;4.82;;;;;;;;;;5071930;28;20124;-67
2023/12/10 03:08:39;;;;;;;36.75;4.88;;;;;;;;;;5071120;28;20448;-67
2023/12/10 03:11:06;;;;;;;31.85;5.00;;;;;;;;;;5070396;28;20036;-67
2023/12/10 03:13:32;;;;;;;31.55;4.88;;;;;;;;;;5071182;28;20040;-67
2023/12/10 03:15:58;;;;;;;30.88;5.22;;;;;;;;;;5070168;28;20044;-67
2023/12/10 03:18:25;;;;;;;30.02;4.45;;;;;;;;;;5075585;28;20502;-67
2023/12/10 03:20:51;;;;;;;30.55;4.93;;;;;;;;;;5090485;28;20040;-67
2023/12/10 03:23:17;;;;;;;26.60;4.35;;;;;;;;;;5091043;28;20051;-67
2023/12/10 03:25:43;;;;;;;33.47;4.63;;;;;;;;;;5081951;28;20076;-67
2023/12/10 03:28:09;;;;;;;29.25;4.38;;;;;;;;;;5068848;28;20051;-67
2023/12/10 03:30:35;;;;;;;31.48;4.80;;;;;;;;;;5070769;28;20041;-67
2023/12/10 03:33:01;;;;;;;39.47;4.97;;;;;;;;;;5069981;28;20036;-67
2023/12/10 03:35:27;;;;;;;35.20;5.32;;;;;;;;;;5074190;28;20044;-67
2023/12/10 03:37:53;;;;;;;38.50;4.85;;;;;;;;;;5074407;28;20441;-67
2023/12/10 03:40:20;;;;;;;33.03;4.30;;;;;;;;;;5074306;28;20059;-67
2023/12/10 03:42:46;;;;;;;27.52;4.00;;;;;;;;;;5075614;28;20483;-67
2023/12/10 03:45:12;;;;;;;27.60;4.00;;;;;;;;;;5075293;28;20812;-67
2023/12/10 03:47:39;;;;;;;26.58;3.88;;;;;;;;;;5074765;28;20040;-67
2023/12/10 03:50:05;;;;;;;26.45;3.45;;;;;;;;;;5075930;28;20044;-67
2023/12/10 03:52:31;;;;;;;23.25;4.07;;;;;;;;;;5074461;28;20044;-67
2023/12/10 03:54:57;;;;;;;20.05;3.40;;;;;;;;;;5073431;28;20101;-67
2023/12/10 03:57:23;;;;;;;23.52;3.33;;;;;;;;;;5074629;28;20070;-67
2023/12/10 03:59:49;;;;;;;19.65;3.65;;;;;;;;;;5075077;28;20094;-67
2023/12/10 04:02:15;;;;;;;19.85;3.40;;;;;;;;;;5073951;28;20498;-67
2023/12/10 04:04:41;;;;;;;19.15;3.00;;;;;;;;;;5074054;28;20049;-67
2023/12/10 04:07:07;;;;;;;15.90;2.78;;;;;;;;;;5073776;28;20037;-67
2023/12/10 04:09:33;;;;;;;17.27;3.47;;;;;;;;;;5074486;28;20529;-67
2023/12/10 04:11:59;;;;;;;19.63;3.03;;;;;;;;;;5073903;28;20047;-67
2023/12/10 04:14:25;;;;;;;19.95;3.03;;;;;;;;;;5074271;28;20051;-67
2023/12/10 04:16:51;;;;;;;15.93;2.60;;;;;;;;;;5072064;28;20044;-67
2023/12/10 04:19:17;;;;;;;23.60;3.30;;;;;;;;;;5087364;28;20475;-67
2023/12/10 04:21:45;;;;;;;14.52;2.80;;;;;;;;;;5093865;28;20044;-67
2023/12/10 04:24:11;;;;;;;19.60;3.05;;;;;;;;;;5092002;28;20040;-67
2023/12/10 04:26:37;;;;;;;10.23;2.00;;;;;;;;;;5077990;28;20534;-67
2023/12/10 04:29:03;;;;;;;15.20;3.22;;;;;;;;;;5072769;28;20036;-67
2023/12/10 04:31:29;;;;;;;12.98;2.42;;;;;;;;;;5073084;28;20379;-67
2023/12/10 04:33:55;;;;;;;18.10;2.65;;;;;;;;;;5074953;28;20048;-67
2023/12/10 04:36:21;;;;;;;20.92;3.08;;;;;;;;;;5073542;28;20048;-67
2023/12/10 04:38:48;;;;;;;22.42;3.70;;;;;;;;;;5073059;28;20543;-67
2023/12/10 04:41:14;;;;;;;25.60;3.22;;;;;;;;;;5072855;28;20710;-68
2023/12/10 04:43:41;;;;;;;20.27;3.33;;;;;;;;;;5073054;28;20085;-67
2023/12/10 04:46:07;;;;;;;19.75;3.22;;;;;;;;;;5070960;28;20064;-68
2023/12/10 04:48:33;;;;;;;19.33;3.28;;;;;;;;;;5072797;28;20475;-68
2023/12/10 04:50:59;;;;;;;23.70;3.50;;;;;;;;;;5071697;28;20052;-68
2023/12/10 04:53:25;;;;;;;16.98;3.40;;;;;;;;;;5073865;28;20045;-68
2023/12/10 04:55:51;;;;;;;17.73;3.92;;;;;;;;;;5074656;28;20089;-68
2023/12/10 04:58:17;;;;;;;23.55;3.38;;;;;;;;;;5071785;28;20463;-68
2023/12/10 05:00:44;;;;;;;22.23;3.15;;;;;;;;;;5073791;28;20044;-67
2023/12/10 05:03:10;;;;;;;18.75;3.63;;;;;;;;;;5071580;28;20129;-68
2023/12/10 05:05:36;;;;;;;20.38;3.80;;;;;;;;;;5072319;28;20329;-68
2023/12/10 05:08:02;;;;;;;21.63;3.25;;;;;;;;;;5072536;28;20519;-67
2023/12/10 05:10:28;;;;;;;22.95;4.03;;;;;;;;;;5072040;28;20109;-67
2023/12/10 05:12:54;;;;;;;24.33;2.75;;;;;;;;;;5072452;28;20478;-67
2023/12/10 05:15:20;;;;;;;18.90;2.97;;;;;;;;;;5072814;28;20044;-67
2023/12/10 05:17:46;;;;;;;17.77;2.85;;;;;;;;;;5071944;28;20044;-67
2023/12/10 05:20:12;;;;;;;16.23;3.20;;;;;;;;;;5090797;28;20044;-67
2023/12/10 05:22:39;;;;;;;19.90;3.17;;;;;;;;;;5091217;28;20433;-67
2023/12/10 05:25:05;;;;;;;21.27;3.78;;;;;;;;;;5089491;28;20059;-67
2023/12/10 05:27:32;;;;;;;26.23;3.30;;;;;;;;;;5072148;28;20036;-67
2023/12/10 05:29:59;;;;;;;23.90;3.58;;;;;;;;;;5072651;28;20044;-67
2023/12/10 05:32:28;;;;;;;22.98;3.35;;;;;;;;;;5070349;28;20050;-67
2023/12/10 05:34:54;;;;;;;26.23;3.28;;;;;;;;;;5070644;28;20044;-67
2023/12/10 05:37:20;;;;;;;22.40;3.65;;;;;;;;;;5071726;28;20135;-67
2023/12/10 05:39:46;;;;;;;27.70;3.70;;;;;;;;;;5072323;28;20048;-67
2023/12/10 05:42:12;;;;;;;26.35;3.70;;;;;;;;;;5072729;28;20051;-67
2023/12/10 05:44:38;;;;;;;20.75;3.22;;;;;;;;;;5072717;28;20072;-67
2023/12/10 05:47:04;;;;;;;26.40;4.10;;;;;;;;;;5071025;28;20044;-67
2023/12/10 05:49:30;;;;;;;24.45;3.72;;;;;;;;;;5072293;28;20502;-67
2023/12/10 05:51:56;;;;;;;24.80;3.25;;;;;;;;;;5070459;28;20042;-67
2023/12/10 05:54:22;;;;;;;25.85;3.97;;;;;;;;;;5071080;28;20112;-67
2023/12/10 05:56:48;;;;;;;25.67;3.35;;;;;;;;;;5071011;28;20534;-67
2023/12/10 05:59:15;;;;;;;25.17;4.28;;;;;;;;;;5069611;28;20059;-67
2023/12/10 06:01:42;;;;;;;21.90;3.63;;;;;;;;;;5070558;28;20041;-67
2023/12/10 06:04:08;;;;;;;20.65;4.20;;;;;;;;;;5070972;28;20483;-67
2023/12/10 06:06:34;;;;;;;15.65;2.75;;;;;;;;;;5070962;28;20440;-67
2023/12/10 06:09:00;;;;;;;21.48;3.50;;;;;;;;;;5070345;28;20127;-67
2023/12/10 06:11:26;;;;;;;25.98;4.43;;;;;;;;;;5069665;28;20041;-67
2023/12/10 06:13:52;;;;;;;24.02;3.17;;;;;;;;;;5069290;28;20045;-67
2023/12/10 06:16:18;;;;;;;24.48;3.55;;;;;;;;;;5070454;28;20040;-67
2023/12/10 06:18:44;;;;;;;25.70;3.97;;;;;;;;;;5079614;28;20189;-67
2023/12/10 06:21:10;;;;;;;31.55;4.10;;;;;;;;;;5091133;28;20032;-67
2023/12/10 06:23:36;;;;;;;35.13;4.93;;;;;;;;;;5090729;28;20444;-67
2023/12/10 06:26:02;;;;;;;27.58;5.07;;;;;;;;;;5080804;28;20052;-67
2023/12/10 06:28:28;;;;;;;29.73;4.70;;;;;;;;;;5071900;28;20037;-67
2023/12/10 06:30:55;;;;;;;35.53;5.15;;;;;;;;;;5070714;28;20036;-67
2023/12/10 06:33:21;;;;;;;34.47;5.72;;;;;;;;;;5070672;28;20049;-67
2023/12/10 06:35:47;;;;;;;34.15;5.07;;;;;;;;;;5070947;28;20047;-67
2023/12/10 06:38:13;;;;;;;27.70;4.20;;;;;;;;;;5069457;28;20051;-67
2023/12/10 06:40:39;;;;;;;34.00;4.55;;;;;;;;;;5068643;28;20045;-67
2023/12/10 06:43:05;;;;;;;33.65;5.00;;;;;;;;;;5069003;28;20083;-67
2023/12/10 06:45:31;;;;;;;28.10;4.25;;;;;;;;;;5069725;28;20425;-67
2023/12/10 06:47:57;;;;;;;30.67;4.55;;;;;;;;;;5068732;28;20066;-67
2023/12/10 06:50:23;;;;;;;34.47;4.40;;;;;;;;;;5070102;28;20070;-67
2023/12/10 06:52:49;;;;;;;37.25;5.38;;;;;;;;;;5068597;28;20037;-67
2023/12/10 06:55:15;;;;;;;31.13;5.10;;;;;;;;;;5068711;28;20044;-67
2023/12/10 06:57:41;;;;;;;42.85;5.22;;;;;;;;;;5069572;28;20064;-67
2023/12/10 07:00:08;;;;;;;30.15;5.15;;;;;;;;;;5069680;28;20052;-67
2023/12/10 07:02:34;;;;;;;42.42;4.95;;;;;;;;;;5069641;28;20043;-67
2023/12/10 07:05:00;;;;;;;28.40;5.53;;;;;;;;;;5069740;28;20757;-67
2023/12/10 07:07:26;;;;;;;32.13;5.50;;;;;;;;;;5069381;28;20036;-67
2023/12/10 07:09:52;;;;;;;27.20;4.22;;;;;;;;;;5069211;28;20032;-67
2023/12/10 07:12:18;;;;;;;30.95;4.65;;;;;;;;;;5069870;28;20454;-67
2023/12/10 07:14:44;;;;;;;38.15;4.85;;;;;;;;;;5069180;28;20036;-67
2023/12/10 07:17:10;;;;;;;26.55;4.32;;;;;;;;;;5069461;28;20467;-67
2023/12/10 07:19:36;;;;;;;36.25;4.78;;;;;;;;;;5085179;28;20072;-67
2023/12/10 07:22:02;;;;;;;26.73;4.60;;;;;;;;;;5088041;28;20043;-67
2023/12/10 07:24:30;;;;;;;27.63;3.28;;;;;;;;;;5089656;28;20043;-67
2023/12/10 07:26:56;;;;;;;22.33;3.70;;;;;;;;;;5070235;28;20090;-67
2023/12/10 07:29:22;;;;;;;21.52;3.72;;;;;;;;;;5068119;28;20037;-67
2023/12/10 07:31:48;;;;;;;23.45;3.22;;;;;;;;;;5069753;28;20047;-67
2023/12/10 07:34:14;;;;;;;27.63;3.65;;;;;;;;;;5069558;28;20038;-67
2023/12/10 07:36:40;;;;;;;15.52;2.72;;;;;;;;;;5051444;28;20048;-67
2023/12/10 07:39:07;;;;;;;32.15;3.60;;;;;;;;;;5069619;28;20051;-67
2023/12/10 07:41:33;;;;;;;25.50;3.50;;;;;;;;;;5068221;28;20516;-67
2023/12/10 07:43:59;;;;;;;27.98;3.88;;;;;;;;;;5068003;28;20080;-67
2023/12/10 07:46:25;;;;;;;21.45;3.38;;;;;;;;;;5068253;28;20072;-67
2023/12/10 07:48:51;;;;;;;19.92;3.15;;;;;;;;;;5068301;28;20482;-67
2023/12/10 07:51:18;;;;;;;26.67;3.42;;;;;;;;;;5068930;28;20076;-67
2023/12/10 07:53:44;;;;;;;29.20;3.53;;;;;;;;;;5067986;28;20419;-67
2023/12/10 07:56:10;;;;;;;26.15;3.53;;;;;;;;;;5067973;28;20048;-67
2023/12/10 07:58:36;;;;;;;18.05;3.22;;;;;;;;;;5068661;28;20053;-67
2023/12/10 08:01:02;;;;;;;25.83;3.42;;;;;;;;;;5069624;28;20185;-67
2023/12/10 08:03:28;;;;;;;21.80;3.47;;;;;;;;;;5067808;28;20041;-67
2023/12/10 08:05:54;;;;;;;23.25;3.30;;;;;;;;;;5069023;28;20044;-67
2023/12/10 08:08:20;;;;;;;22.52;4.03;;;;;;;;;;5069520;28;20486;-67
2023/12/10 08:10:46;;;;;;;28.38;4.15;;;;;;;;;;5069662;28;20164;-67
2023/12/10 08:13:12;;;;;;;18.80;3.25;;;;;;;;;;5069853;28;20036;-67
2023/12/10 08:15:38;;;;;;;30.20;3.88;;;;;;;;;;5069321;28;20052;-67
2023/12/10 08:18:05;;;;;;;23.17;3.75;;;;;;;;;;5070851;28;20097;-67
2023/12/10 08:20:31;;;;;;;23.80;3.30;;;;;;;;;;5090253;28;20076;-67
2023/12/10 08:22:58;;;;;;;27.00;3.90;;;;;;;;;;5092834;28;20040;-67
2023/12/10 08:25:24;;;;;;;19.30;3.63;;;;;;;;;;5087355;28;20052;-67
2023/12/10 08:27:51;;;;;;;21.20;3.28;;;;;;;;;;5072832;28;20052;-67
2023/12/10 08:30:17;;;;;;;21.80;3.05;;;;;;;;;;5070834;28;20051;-67
2023/12/10 08:32:43;;;;;;;26.55;3.25;;;;;;;;;;5071105;28;20068;-67
2023/12/10 08:35:09;;;;;;;25.00;3.40;;;;;;;;;;5072761;28;20401;-67
2023/12/10 08:37:35;;;;;;;23.25;3.92;;;;;;;;;;5072166;28;20131;-67
2023/12/10 08:40:02;;;;;;;24.05;2.90;;;;;;;;;;5071060;28;20041;-67
2023/12/10 08:42:30;;;;;;;25.90;3.45;;;;;;;;;;5072697;28;20044;-67
2023/12/10 08:44:56;;;;;;;26.20;3.58;;;;;;;;;;5070359;28;20455;-67
2023/12/10 08:47:22;;;;;;;23.27;3.45;;;;;;;;;;5072486;28;20041;-67
2023/12/10 08:49:48;;;;;;;19.75;3.53;;;;;;;;;;5072394;28;20438;-67
2023/12/10 08:52:14;;;;;;;22.35;3.55;;;;;;;;;;5072328;28;20036;-67
2023/12/10 08:54:40;;;;;;;33.38;4.47;;;;;;;;;;5072335;28;20045;-67
2023/12/10 08:57:06;;;;;;;23.65;3.30;;;;;;;;;;5070782;28;20392;-67
2023/12/10 08:59:32;;;;;;;20.23;3.35;;;;;;;;;;5070152;28;20071;-67
2023/12/10 09:01:58;;;;;;;23.98;3.80;;;;;;;;;;5070652;28;20037;-67
2023/12/10 09:04:24;;;;;;;27.92;4.00;;;;;;;;;;5071720;28;20541;-67
2023/12/10 09:06:50;;;;;;;34.40;4.50;;;;;;;;;;5072009;28;20041;-67
2023/12/10 09:09:16;;;;;;;28.73;4.43;;;;;;;;;;5072077;28;20104;-67
2023/12/10 09:11:42;;;;;;;28.75;4.13;;;;;;;;;;5070606;28;20052;-67
2023/12/10 09:14:10;;;;;;;34.10;4.55;;;;;;;;;;5070133;28;20041;-67
2023/12/10 09:16:37;;;;;;;26.63;4.18;;;;;;;;;;5072135;28;20052;-67
2023/12/10 09:19:03;;;;;;;34.58;4.57;;;;;;;;;;5082924;28;20066;-67
2023/12/10 09:21:30;;;;;;;31.02;5.72;;;;;;;;;;5091725;28;20486;-67
2023/12/10 09:23:57;;;;;;;38.67;6.50;;;;;;;;;;5092043;28;20044;-67
2023/12/10 09:26:23;;;;;;;39.53;6.07;;;;;;;;;;5078393;28;20047;-67
2023/12/10 09:28:49;;;;;;;44.95;6.50;;;;;;;;;;5071036;28;20036;-67
2023/12/10 09:31:15;;;;;;;48.55;6.28;;;;;;;;;;5071687;28;20051;-67
2023/12/10 09:33:41;;;;;;;41.65;6.13;;;;;;;;;;5070843;28;20086;-67
2023/12/10 09:36:07;;;;;;;54.58;7.22;;;;;;;;;;5070834;28;20051;-67
2023/12/10 09:38:33;;;;;;;36.13;5.88;;;;;;;;;;5070128;28;20487;-67
2023/12/10 09:40:59;;;;;;;43.55;6.18;;;;;;;;;;5071455;28;20043;-67
2023/12/10 09:43:25;;;;;;;48.28;7.93;;;;;;;;;;5071143;28;20044;-67
2023/12/10 09:45:51;;;;;;;42.80;6.55;;;;;;;;;;5069809;28;20055;-67
2023/12/10 09:48:17;;;;;;;36.95;5.53;;;;;;;;;;5069695;28;20123;-67
2023/12/10 09:50:45;;;;;;;40.17;5.55;;;;;;;;;;5070948;28;20044;-67
2023/12/10 09:53:13;;;;;;;40.85;6.53;;;;;;;;;;5071104;28;20051;-67
2023/12/10 09:55:39;;;;;;;46.30;6.70;;;;;;;;;;5071055;28;20048;-67
2023/12/10 09:58:05;;;;;;;51.85;6.95;;;;;;;;;;5070365;28;20055;-67
2023/12/10 10:00:31;;;;;;;51.58;6.90;;;;;;;;;;5069792;28;20500;-67
2023/12/10 10:03:01;;;;;;;45.78;6.32;;;;;;;;;;5069487;28;20040;-67
2023/12/10 10:05:27;;;;;;;38.78;6.03;;;;;;;;;;5069113;28;20044;-67
2023/12/10 10:07:54;;;;;;;45.95;6.43;;;;;;;;;;5069486;28;20395;-67
2023/12/10 10:10:25;;;;;;;49.63;6.10;;;;;;;;;;5069399;28;20044;-67
2023/12/10 10:12:51;;;;;;;30.85;5.60;;;;;;;;;;5070654;28;20379;-67
2023/12/10 10:15:26;;;;;;;45.90;7.03;;;;;;;;;;5069247;28;20071;-67
2023/12/10 10:17:53;;;;;;;39.53;5.65;;;;;;;;;;5072227;28;20393;-67
2023/12/10 10:20:19;;;;;;;45.17;6.70;;;;;;;;;;5089534;28;20532;-67
2023/12/10 10:22:47;;;;;;;47.40;6.18;;;;;;;;;;5090931;28;20286;-67
2023/12/10 10:25:13;;;;;;;38.42;7.13;;;;;;;;;;5085544;28;20441;-67
2023/12/10 10:27:39;;;;;;;30.33;5.45;;;;;;;;;;5069403;28;20066;-67
2023/12/10 10:30:05;;;;;;;30.95;4.85;;;;;;;;;;5070850;28;20085;-67
2023/12/10 10:32:31;;;;;;;39.13;5.57;;;;;;;;;;5071215;28;20037;-67
2023/12/10 10:34:58;;;;;;;41.70;6.30;;;;;;;;;;5068739;28;20044;-67
2023/12/10 10:37:24;;;;;;;37.63;6.22;;;;;;;;;;5069240;28;20097;-67
2023/12/10 10:39:50;;;;;;;36.42;5.57;;;;;;;;;;5070296;28;20044;-67
2023/12/10 10:42:19;;;;;;;37.75;5.63;;;;;;;;;;5069236;28;20525;-67
2023/12/10 10:44:46;;;;;;;47.13;5.63;;;;;;;;;;5068897;28;20044;-67
2023/12/10 10:47:12;;;;;;;35.20;5.40;;;;;;;;;;5069507;28;20049;-67
2023/12/10 10:49:40;;;;;;;36.40;5.03;;;;;;;;;;5069844;28;20040;-67
2023/12/10 10:52:09;;;;;;;43.95;6.13;;;;;;;;;;5069982;28;20055;-67
2023/12/10 10:54:35;;;;;;;32.30;5.35;;;;;;;;;;5069452;28;20040;-67
2023/12/10 10:57:02;;;;;;;41.50;5.40;;;;;;;;;;5068881;28;20409;-67
2023/12/10 10:59:30;;;;;;;29.20;4.28;;;;;;;;;;5070376;28;20053;-67
2023/12/10 11:01:58;;;;;;;32.80;4.38;;;;;;;;;;5070291;28;20041;-67
2023/12/10 11:04:24;;;;;;;37.63;5.72;;;;;;;;;;5069758;28;20036;-67
2023/12/10 11:06:53;;;;;;;30.95;4.75;;;;;;;;;;5069762;28;20090;-67
2023/12/10 11:09:19;;;;;;;29.52;4.13;;;;;;;;;;5070227;28;20044;-67
2023/12/10 11:11:45;;;;;;;32.13;4.78;;;;;;;;;;5070018;28;20083;-67
2023/12/10 11:14:21;;;;;;;38.03;5.32;;;;;;;;;;5068954;28;20045;-67
2023/12/10 11:17:08;;;;;;;37.38;5.60;;;;;;;;;;5070145;28;20395;-67
2023/12/10 11:19:34;;;;;;;33.28;4.93;;;;;;;;;;5084677;28;20036;-67
2023/12/10 11:22:01;;;;;;;32.47;5.15;;;;;;;;;;5088832;28;20036;-67
2023/12/10 11:24:27;;;;;;;27.33;4.47;;;;;;;;;;5089321;28;20051;-67
2023/12/10 11:26:53;;;;;;;38.13;5.35;;;;;;;;;;5072084;28;20410;-67
2023/12/10 11:29:19;;;;;;;35.38;5.63;;;;;;;;;;5069657;28;20044;-67
2023/12/10 11:31:45;;;;;;;35.35;6.70;;;;;;;;;;5068787;28;20491;-68
2023/12/10 11:34:12;;;;;;;26.42;4.82;;;;;;;;;;5069803;28;20045;-68
2023/12/10 11:36:38;;;;;;;28.65;4.72;;;;;;;;;;5070152;28;20036;-68
2023/12/10 11:39:04;;;;;;;36.15;4.63;;;;;;;;;;5070003;28;20075;-68
2023/12/10 11:41:31;;;;;;;23.73;5.03;;;;;;;;;;5070083;28;20048;-68
2023/12/10 11:43:57;;;;;;;26.30;4.65;;;;;;;;;;5070036;28;20044;-68
2023/12/10 11:46:23;;;;;;;38.75;7.22;;;;;;;;;;5068521;28;20041;-68
2023/12/10 11:48:56;;;;;;;35.38;5.72;;;;;;;;;;5068169;28;20255;-68
2023/12/10 11:51:22;;;;;;;27.25;4.78;;;;;;;;;;5069198;28;20044;-68
2023/12/10 11:53:49;;;;;;;26.73;5.15;;;;;;;;;;5069369;28;20048;-68
2023/12/10 11:56:15;;;;;;;30.65;4.75;;;;;;;;;;5072139;28;20127;-68
2023/12/10 11:58:44;;;;;;;36.28;5.63;;;;;;;;;;5073714;28;20082;-68
2023/12/10 12:01:11;;;;;;;38.38;5.03;;;;;;;;;;5074751;28;20041;-68
2023/12/10 12:03:39;;;;;;;33.05;4.90;;;;;;;;;;5074213;28;20044;-68
2023/12/10 12:06:05;;;;;;;34.30;4.97;;;;;;;;;;5072659;28;20564;-68
2023/12/10 12:08:31;;;;;;;31.27;5.35;;;;;;;;;;5074099;28;20036;-68
2023/12/10 12:10:58;;;;;;;40.08;5.85;;;;;;;;;;5073800;28;20474;-68
2023/12/10 12:13:24;;;;;;;40.25;5.90;;;;;;;;;;5073001;28;20044;-68
2023/12/10 12:15:51;;;;;;;35.85;5.88;;;;;;;;;;5074231;28;20066;-68
2023/12/10 12:18:18;;;;;;;35.70;5.30;;;;;;;;;;5078265;28;20104;-68
2023/12/10 12:20:44;;;;;;;25.02;5.03;;;;;;;;;;5094302;28;20158;-68
2023/12/10 12:23:11;;;;;;;30.35;4.93;;;;;;;;;;5094510;28;20051;-68
2023/12/10 12:25:40;;;;;;;35.38;4.50;;;;;;;;;;5084963;28;20052;-68
2023/12/10 12:28:06;;;;;;;29.13;4.50;;;;;;;;;;5074028;28;20552;-68
2023/12/10 12:30:33;;;;;;;31.38;4.90;;;;;;;;;;5072940;28;20517;-68
2023/12/10 12:32:59;;;;;;;28.73;4.88;;;;;;;;;;5073481;28;20044;-68
2023/12/10 12:35:26;;;;;;;27.02;4.28;;;;;;;;;;5073636;28;20044;-68
2023/12/10 12:37:52;;;;;;;35.72;5.20;;;;;;;;;;5074435;28;20051;-68
2023/12/10 12:40:20;;;;;;;27.30;3.70;;;;;;;;;;5073686;28;20047;-68
2023/12/10 12:42:46;;;;;;;24.27;3.55;;;;;;;;;;5072557;28;20072;-68
2023/12/10 12:45:12;;;;;;;19.55;3.53;;;;;;;;;;5072782;28;20197;-68
2023/12/10 12:47:38;;;;;;;20.17;3.15;;;;;;;;;;5072615;28;20052;-68
2023/12/10 12:50:06;;;;;;;24.67;4.10;;;;;;;;;;5073012;28;20040;-68
2023/12/10 12:52:32;;;;;;;23.50;4.07;;;;;;;;;;5072740;28;20044;-68
2023/12/10 12:54:58;;;;;;;22.80;4.40;;;;;;;;;;5073668;28;20100;-68
2023/12/10 12:57:24;;;;;;;29.23;5.28;;;;;;;;;;5055868;28;20067;-68
2023/12/10 12:59:50;;;;;;;32.10;4.53;;;;;;;;;;5072454;28;20048;-68
2023/12/10 13:02:16;;;;;;;25.40;4.43;;;;;;;;;;5072043;28;20048;-68
2023/12/10 13:04:42;;;;;;;25.02;4.40;;;;;;;;;;5073592;28;20056;-68
2023/12/10 13:07:09;;;;;;;30.40;4.43;;;;;;;;;;5071311;28;20044;-68
2023/12/10 13:09:36;;;;;;;19.48;3.65;;;;;;;;;;5073726;28;20040;-68
2023/12/10 13:12:03;;;;;;;26.40;4.35;;;;;;;;;;5055744;28;20033;-68
2023/12/10 13:14:29;;;;;;;26.58;4.20;;;;;;;;;;5072476;28;20041;-68
2023/12/10 13:16:55;;;;;;;30.58;5.85;;;;;;;;;;5073521;28;20456;-68
2023/12/10 13:19:21;;;;;;;28.70;4.90;;;;;;;;;;5085961;28;20375;-68
2023/12/10 13:21:50;;;;;;;33.63;4.68;;;;;;;;;;5093967;28;20072;-68
2023/12/10 13:24:16;;;;;;;28.60;4.63;;;;;;;;;;5093858;28;20395;-68
2023/12/10 13:26:42;;;;;;;24.27;4.47;;;;;;;;;;5077739;28;20040;-68
2023/12/10 13:29:10;;;;;;;25.83;4.20;;;;;;;;;;5072120;28;20069;-68
2023/12/10 13:31:37;;;;;;;28.65;4.80;;;;;;;;;;5073182;28;20051;-68
2023/12/10 13:34:06;;;;;;;20.45;4.45;;;;;;;;;;5072291;28;20044;-68
2023/12/10 13:36:32;;;;;;;23.95;3.55;;;;;;;;;;5073319;28;20155;-68
2023/12/10 13:38:58;;;;;;;26.70;4.20;;;;;;;;;;5073069;28;20044;-68
2023/12/10 13:41:25;;;;;;;22.25;3.95;;;;;;;;;;5072417;28;20511;-68
2023/12/10 13:43:51;;;;;;;16.33;3.35;;;;;;;;;;5072074;28;20227;-68
2023/12/10 13:46:17;;;;;;;20.77;4.00;;;;;;;;;;5072863;28;20083;-68
2023/12/10 13:48:44;;;;;;;18.50;3.35;;;;;;;;;;5073439;28;20040;-68
2023/12/10 13:51:11;;;;;;;18.80;3.50;;;;;;;;;;5071937;28;20173;-68
2023/12/10 13:53:37;;;;;;;20.10;2.88;;;;;;;;;;5072404;28;20368;-68
2023/12/10 13:56:03;;;;;;;22.73;4.03;;;;;;;;;;5072093;28;20043;-68
2023/12/10 13:58:29;;;;;;;25.80;3.58;;;;;;;;;;5073109;28;20088;-68
2023/12/10 14:00:55;;;;;;;26.73;4.07;;;;;;;;;;5073600;28;20051;-68
2023/12/10 14:03:21;;;;;;;24.08;4.13;;;;;;;;;;5071913;28;20032;-68
2023/12/10 14:05:47;;;;;;;23.40;4.57;;;;;;;;;;5073123;28;20478;-68
2023/12/10 14:08:13;;;;;;;23.58;4.00;;;;;;;;;;5073112;28;20043;-68
2023/12/10 14:10:39;;;;;;;26.80;3.95;;;;;;;;;;5072206;28;20572;-68
2023/12/10 14:13:06;;;;;;;23.30;3.80;;;;;;;;;;5073442;28;20071;-68
2023/12/10 14:15:32;;;;;;;27.50;3.85;;;;;;;;;;5073659;28;20051;-68
2023/12/10 14:17:58;;;;;;;22.08;4.13;;;;;;;;;;5074431;28;20048;-68
2023/12/10 14:20:24;;;;;;;19.98;4.20;;;;;;;;;;5093633;28;20046;-68
2023/12/10 14:22:50;;;;;;;21.70;4.03;;;;;;;;;;5093503;28;20043;-68
2023/12/10 14:25:16;;;;;;;23.38;4.18;;;;;;;;;;5087691;28;20290;-68